sensor_id;sensor_type;location;lat;lon;timestamp;P1;durP1;ratioP1;P2;durP2;ratioP2
71196;SDS011;58918;51.652;4.864;2022-11-22T00:00:15;5.32;;;1.60;;
71196;SDS011;58918;51.652;4.864;2022-11-22T00:02:42;3.53;;;0.95;;
71196;SDS011;58918;51.652;4.864;2022-11-22T00:05:09;2.70;;;1.10;;
71196;SDS011;58918;51.652;4.864;2022-11-22T00:07:37;3.55;;;1.00;;
71196;SDS011;58918;51.652;4.864;2022-11-22T00:10:04;4.45;;;1.17;;
71196;SDS011;58918;51.652;4.864;2022-11-22T00:12:32;4.43;;;1.17;;
71196;SDS011;58918;51.652;4.864;2022-11-22T00:14:59;4.30;;;1.10;;
71196;SDS011;58918;51.652;4.864;2022-11-22T00:17:27;4.53;;;1.20;;
71196;SDS011;58918;51.652;4.864;2022-11-22T00:19:54;5.05;;;1.08;;
71196;SDS011;58918;51.652;4.864;2022-11-22T00:22:21;3.85;;;0.93;;
71196;SDS011;58918;51.652;4.864;2022-11-22T00:24:49;3.53;;;0.90;;
71196;SDS011;58918;51.652;4.864;2022-11-22T00:27:16;3.28;;;1.10;;
71196;SDS011;58918;51.652;4.864;2022-11-22T00:29:44;3.90;;;1.10;;
71196;SDS011;58918;51.652;4.864;2022-11-22T00:32:11;3.00;;;1.33;;
71196;SDS011;58918;51.652;4.864;2022-11-22T00:34:38;3.65;;;1.23;;
71196;SDS011;58918;51.652;4.864;2022-11-22T00:37:05;3.15;;;0.77;;
71196;SDS011;58918;51.652;4.864;2022-11-22T00:39:32;3.35;;;0.90;;
71196;SDS011;58918;51.652;4.864;2022-11-22T00:41:59;3.72;;;1.00;;
71196;SDS011;58918;51.652;4.864;2022-11-22T00:44:26;2.45;;;0.95;;
71196;SDS011;58918;51.652;4.864;2022-11-22T00:46:54;4.97;;;1.00;;
71196;SDS011;58918;51.652;4.864;2022-11-22T00:49:21;5.60;;;1.38;;
71196;SDS011;58918;51.652;4.864;2022-11-22T00:51:48;3.05;;;0.98;;
71196;SDS011;58918;51.652;4.864;2022-11-22T00:54:15;3.42;;;1.10;;
71196;SDS011;58918;51.652;4.864;2022-11-22T00:56:42;2.47;;;0.80;;
71196;SDS011;58918;51.652;4.864;2022-11-22T00:59:11;3.33;;;0.90;;
71196;SDS011;58918;51.652;4.864;2022-11-22T01:01:38;3.03;;;0.90;;
71196;SDS011;58918;51.652;4.864;2022-11-22T01:04:06;3.30;;;0.90;;
71196;SDS011;58918;51.652;4.864;2022-11-22T01:06:33;6.45;;;1.10;;
71196;SDS011;58918;51.652;4.864;2022-11-22T01:09:00;6.13;;;1.02;;
71196;SDS011;58918;51.652;4.864;2022-11-22T01:11:27;3.03;;;0.93;;
71196;SDS011;58918;51.652;4.864;2022-11-22T01:13:54;3.58;;;0.90;;
71196;SDS011;58918;51.652;4.864;2022-11-22T01:16:22;6.32;;;1.48;;
71196;SDS011;58918;51.652;4.864;2022-11-22T01:18:49;3.13;;;0.98;;
71196;SDS011;58918;51.652;4.864;2022-11-22T01:21:16;3.53;;;0.95;;
71196;SDS011;58918;51.652;4.864;2022-11-22T01:23:43;2.70;;;0.95;;
71196;SDS011;58918;51.652;4.864;2022-11-22T01:26:10;4.05;;;0.88;;
71196;SDS011;58918;51.652;4.864;2022-11-22T01:28:38;1.98;;;0.60;;
71196;SDS011;58918;51.652;4.864;2022-11-22T01:31:05;4.25;;;1.00;;
71196;SDS011;58918;51.652;4.864;2022-11-22T01:33:32;3.10;;;0.88;;
71196;SDS011;58918;51.652;4.864;2022-11-22T01:35:59;3.70;;;1.00;;
71196;SDS011;58918;51.652;4.864;2022-11-22T01:38:26;3.28;;;1.10;;
71196;SDS011;58918;51.652;4.864;2022-11-22T01:40:54;3.45;;;0.90;;
71196;SDS011;58918;51.652;4.864;2022-11-22T01:43:23;5.18;;;1.05;;
71196;SDS011;58918;51.652;4.864;2022-11-22T01:45:51;2.22;;;0.70;;
71196;SDS011;58918;51.652;4.864;2022-11-22T01:50:52;2.95;;;0.82;;
71196;SDS011;58918;51.652;4.864;2022-11-22T01:53:24;2.90;;;0.88;;
71196;SDS011;58918;51.652;4.864;2022-11-22T01:55:52;3.72;;;0.82;;
71196;SDS011;58918;51.652;4.864;2022-11-22T01:58:20;4.60;;;1.00;;
71196;SDS011;58918;51.652;4.864;2022-11-22T02:00:49;3.95;;;0.80;;
71196;SDS011;58918;51.652;4.864;2022-11-22T02:05:44;3.85;;;0.95;;
71196;SDS011;58918;51.652;4.864;2022-11-22T02:08:14;4.20;;;1.10;;
71196;SDS011;58918;51.652;4.864;2022-11-22T02:10:46;4.47;;;1.10;;
71196;SDS011;58918;51.652;4.864;2022-11-22T02:13:13;4.85;;;1.50;;
71196;SDS011;58918;51.652;4.864;2022-11-22T02:15:41;3.25;;;0.80;;
71196;SDS011;58918;51.652;4.864;2022-11-22T02:18:09;2.13;;;0.70;;
71196;SDS011;58918;51.652;4.864;2022-11-22T02:20:37;4.80;;;1.10;;
71196;SDS011;58918;51.652;4.864;2022-11-22T02:28:08;3.42;;;1.08;;
71196;SDS011;58918;51.652;4.864;2022-11-22T02:30:36;3.13;;;1.00;;
71196;SDS011;58918;51.652;4.864;2022-11-22T02:33:03;2.53;;;0.90;;
71196;SDS011;58918;51.652;4.864;2022-11-22T02:35:31;3.78;;;0.90;;
71196;SDS011;58918;51.652;4.864;2022-11-22T02:38:08;2.97;;;0.82;;
71196;SDS011;58918;51.652;4.864;2022-11-22T02:40:38;2.60;;;0.73;;
71196;SDS011;58918;51.652;4.864;2022-11-22T02:43:22;4.45;;;0.80;;
71196;SDS011;58918;51.652;4.864;2022-11-22T02:45:49;4.03;;;1.17;;
71196;SDS011;58918;51.652;4.864;2022-11-22T02:48:17;3.78;;;0.95;;
71196;SDS011;58918;51.652;4.864;2022-11-22T02:50:44;2.92;;;0.90;;
71196;SDS011;58918;51.652;4.864;2022-11-22T02:53:11;5.28;;;0.82;;
71196;SDS011;58918;51.652;4.864;2022-11-22T02:55:39;2.28;;;0.68;;
71196;SDS011;58918;51.652;4.864;2022-11-22T02:58:06;2.83;;;0.75;;
71196;SDS011;58918;51.652;4.864;2022-11-22T03:00:35;1.95;;;0.70;;
71196;SDS011;58918;51.652;4.864;2022-11-22T03:03:03;2.55;;;0.70;;
71196;SDS011;58918;51.652;4.864;2022-11-22T03:05:30;3.80;;;0.90;;
71196;SDS011;58918;51.652;4.864;2022-11-22T03:07:57;3.00;;;1.00;;
71196;SDS011;58918;51.652;4.864;2022-11-22T03:10:25;3.25;;;0.98;;
71196;SDS011;58918;51.652;4.864;2022-11-22T03:12:52;2.50;;;0.60;;
71196;SDS011;58918;51.652;4.864;2022-11-22T03:15:19;2.72;;;0.90;;
71196;SDS011;58918;51.652;4.864;2022-11-22T03:17:46;2.85;;;1.00;;
71196;SDS011;58918;51.652;4.864;2022-11-22T03:20:13;3.15;;;0.75;;
71196;SDS011;58918;51.652;4.864;2022-11-22T03:22:40;2.45;;;0.68;;
71196;SDS011;58918;51.652;4.864;2022-11-22T03:25:08;3.38;;;0.90;;
71196;SDS011;58918;51.652;4.864;2022-11-22T03:27:35;4.47;;;1.08;;
71196;SDS011;58918;51.652;4.864;2022-11-22T03:30:02;2.47;;;0.80;;
71196;SDS011;58918;51.652;4.864;2022-11-22T03:32:29;3.38;;;0.70;;
71196;SDS011;58918;51.652;4.864;2022-11-22T03:34:56;2.35;;;0.68;;
71196;SDS011;58918;51.652;4.864;2022-11-22T03:37:23;2.40;;;0.70;;
71196;SDS011;58918;51.652;4.864;2022-11-22T03:39:51;3.33;;;0.70;;
71196;SDS011;58918;51.652;4.864;2022-11-22T03:42:18;4.32;;;0.90;;
71196;SDS011;58918;51.652;4.864;2022-11-22T03:44:47;2.42;;;0.70;;
71196;SDS011;58918;51.652;4.864;2022-11-22T03:47:14;3.58;;;1.10;;
71196;SDS011;58918;51.652;4.864;2022-11-22T03:49:41;2.60;;;0.60;;
71196;SDS011;58918;51.652;4.864;2022-11-22T03:52:08;2.60;;;1.00;;
71196;SDS011;58918;51.652;4.864;2022-11-22T03:54:35;3.08;;;0.90;;
71196;SDS011;58918;51.652;4.864;2022-11-22T03:57:03;3.58;;;0.63;;
71196;SDS011;58918;51.652;4.864;2022-11-22T03:59:30;3.88;;;0.93;;
71196;SDS011;58918;51.652;4.864;2022-11-22T04:01:58;4.32;;;0.90;;
71196;SDS011;58918;51.652;4.864;2022-11-22T04:04:25;3.78;;;0.93;;
71196;SDS011;58918;51.652;4.864;2022-11-22T04:06:52;4.10;;;0.75;;
71196;SDS011;58918;51.652;4.864;2022-11-22T04:09:19;2.80;;;0.68;;
71196;SDS011;58918;51.652;4.864;2022-11-22T04:11:47;3.42;;;0.90;;
71196;SDS011;58918;51.652;4.864;2022-11-22T04:14:14;5.55;;;1.15;;
71196;SDS011;58918;51.652;4.864;2022-11-22T04:17:00;1.70;;;0.60;;
71196;SDS011;58918;51.652;4.864;2022-11-22T04:19:27;3.70;;;0.90;;
71196;SDS011;58918;51.652;4.864;2022-11-22T04:21:54;4.15;;;0.80;;
71196;SDS011;58918;51.652;4.864;2022-11-22T04:24:21;3.50;;;0.85;;
71196;SDS011;58918;51.652;4.864;2022-11-22T04:27:09;2.58;;;0.82;;
71196;SDS011;58918;51.652;4.864;2022-11-22T04:29:36;2.80;;;0.75;;
71196;SDS011;58918;51.652;4.864;2022-11-22T04:32:03;2.70;;;0.85;;
71196;SDS011;58918;51.652;4.864;2022-11-22T04:34:49;2.20;;;0.65;;
71196;SDS011;58918;51.652;4.864;2022-11-22T04:37:16;1.67;;;0.55;;
71196;SDS011;58918;51.652;4.864;2022-11-22T04:39:43;2.83;;;1.00;;
71196;SDS011;58918;51.652;4.864;2022-11-22T04:42:10;3.53;;;0.82;;
71196;SDS011;58918;51.652;4.864;2022-11-22T04:44:55;3.30;;;0.88;;
71196;SDS011;58918;51.652;4.864;2022-11-22T04:47:23;2.90;;;0.60;;
71196;SDS011;58918;51.652;4.864;2022-11-22T04:50:15;7.53;;;0.98;;
71196;SDS011;58918;51.652;4.864;2022-11-22T04:53:01;4.93;;;1.05;;
71196;SDS011;58918;51.652;4.864;2022-11-22T04:55:28;2.92;;;0.75;;
71196;SDS011;58918;51.652;4.864;2022-11-22T04:57:55;4.30;;;0.85;;
71196;SDS011;58918;51.652;4.864;2022-11-22T05:00:26;3.47;;;0.88;;
71196;SDS011;58918;51.652;4.864;2022-11-22T05:02:53;2.08;;;0.63;;
71196;SDS011;58918;51.652;4.864;2022-11-22T05:05:20;7.40;;;1.00;;
71196;SDS011;58918;51.652;4.864;2022-11-22T05:07:48;2.80;;;1.05;;
71196;SDS011;58918;51.652;4.864;2022-11-22T05:10:15;5.03;;;0.90;;
71196;SDS011;58918;51.652;4.864;2022-11-22T05:12:51;3.08;;;0.90;;
71196;SDS011;58918;51.652;4.864;2022-11-22T05:15:18;4.10;;;0.90;;
71196;SDS011;58918;51.652;4.864;2022-11-22T05:17:45;4.00;;;0.82;;
71196;SDS011;58918;51.652;4.864;2022-11-22T05:20:12;2.03;;;0.80;;
71196;SDS011;58918;51.652;4.864;2022-11-22T05:22:39;3.63;;;0.90;;
71196;SDS011;58918;51.652;4.864;2022-11-22T05:25:25;3.97;;;0.98;;
71196;SDS011;58918;51.652;4.864;2022-11-22T05:27:53;3.65;;;0.73;;
71196;SDS011;58918;51.652;4.864;2022-11-22T05:30:20;4.00;;;0.82;;
71196;SDS011;58918;51.652;4.864;2022-11-22T05:32:47;5.28;;;1.20;;
71196;SDS011;58918;51.652;4.864;2022-11-22T05:35:14;7.95;;;0.90;;
71196;SDS011;58918;51.652;4.864;2022-11-22T05:37:41;2.75;;;0.60;;
71196;SDS011;58918;51.652;4.864;2022-11-22T05:40:09;5.15;;;0.70;;
71196;SDS011;58918;51.652;4.864;2022-11-22T05:42:36;3.50;;;0.60;;
71196;SDS011;58918;51.652;4.864;2022-11-22T05:45:03;2.13;;;0.60;;
71196;SDS011;58918;51.652;4.864;2022-11-22T05:47:34;3.63;;;1.00;;
71196;SDS011;58918;51.652;4.864;2022-11-22T05:50:01;7.68;;;1.00;;
71196;SDS011;58918;51.652;4.864;2022-11-22T05:52:29;7.97;;;1.10;;
71196;SDS011;58918;51.652;4.864;2022-11-22T05:54:56;6.65;;;0.75;;
71196;SDS011;58918;51.652;4.864;2022-11-22T05:57:23;5.63;;;0.90;;
71196;SDS011;58918;51.652;4.864;2022-11-22T05:59:50;2.28;;;0.50;;
71196;SDS011;58918;51.652;4.864;2022-11-22T06:02:18;3.50;;;0.80;;
71196;SDS011;58918;51.652;4.864;2022-11-22T06:04:45;4.93;;;0.93;;
71196;SDS011;58918;51.652;4.864;2022-11-22T06:07:12;5.20;;;1.10;;
71196;SDS011;58918;51.652;4.864;2022-11-22T06:09:40;5.63;;;1.05;;
71196;SDS011;58918;51.652;4.864;2022-11-22T06:12:07;5.15;;;1.23;;
71196;SDS011;58918;51.652;4.864;2022-11-22T06:14:34;3.33;;;0.90;;
71196;SDS011;58918;51.652;4.864;2022-11-22T06:17:08;4.05;;;0.70;;
71196;SDS011;58918;51.652;4.864;2022-11-22T06:19:35;3.00;;;0.70;;
71196;SDS011;58918;51.652;4.864;2022-11-22T06:22:02;3.75;;;1.10;;
71196;SDS011;58918;51.652;4.864;2022-11-22T06:24:29;6.10;;;0.95;;
71196;SDS011;58918;51.652;4.864;2022-11-22T06:26:56;3.35;;;1.10;;
71196;SDS011;58918;51.652;4.864;2022-11-22T06:29:24;4.30;;;0.77;;
71196;SDS011;58918;51.652;4.864;2022-11-22T06:31:51;2.67;;;0.85;;
71196;SDS011;58918;51.652;4.864;2022-11-22T06:34:18;3.53;;;0.93;;
71196;SDS011;58918;51.652;4.864;2022-11-22T06:36:45;4.57;;;0.70;;
71196;SDS011;58918;51.652;4.864;2022-11-22T06:39:12;5.47;;;0.90;;
71196;SDS011;58918;51.652;4.864;2022-11-22T06:41:40;3.03;;;0.70;;
71196;SDS011;58918;51.652;4.864;2022-11-22T06:44:07;3.97;;;0.70;;
71196;SDS011;58918;51.652;4.864;2022-11-22T06:46:35;3.53;;;0.82;;
71196;SDS011;58918;51.652;4.864;2022-11-22T06:49:02;3.85;;;0.75;;
71196;SDS011;58918;51.652;4.864;2022-11-22T06:51:30;2.95;;;0.70;;
71196;SDS011;58918;51.652;4.864;2022-11-22T06:53:57;2.42;;;0.63;;
71196;SDS011;58918;51.652;4.864;2022-11-22T06:56:45;2.95;;;0.77;;
71196;SDS011;58918;51.652;4.864;2022-11-22T07:01:39;3.47;;;0.65;;
71196;SDS011;58918;51.652;4.864;2022-11-22T07:04:06;2.50;;;0.50;;
71196;SDS011;58918;51.652;4.864;2022-11-22T07:06:34;3.03;;;0.70;;
71196;SDS011;58918;51.652;4.864;2022-11-22T07:09:03;2.92;;;0.70;;
71196;SDS011;58918;51.652;4.864;2022-11-22T07:13:59;3.42;;;0.90;;
71196;SDS011;58918;51.652;4.864;2022-11-22T07:16:33;4.57;;;0.90;;
71196;SDS011;58918;51.652;4.864;2022-11-22T07:19:01;2.80;;;0.68;;
71196;SDS011;58918;51.652;4.864;2022-11-22T07:21:28;2.88;;;0.65;;
71196;SDS011;58918;51.652;4.864;2022-11-22T07:23:55;3.00;;;0.63;;
71196;SDS011;58918;51.652;4.864;2022-11-22T07:26:23;4.45;;;0.85;;
71196;SDS011;58918;51.652;4.864;2022-11-22T07:28:50;3.22;;;0.65;;
71196;SDS011;58918;51.652;4.864;2022-11-22T07:31:18;5.38;;;1.00;;
71196;SDS011;58918;51.652;4.864;2022-11-22T07:33:45;2.45;;;0.63;;
71196;SDS011;58918;51.652;4.864;2022-11-22T07:36:16;3.58;;;0.80;;
71196;SDS011;58918;51.652;4.864;2022-11-22T07:38:44;3.33;;;0.93;;
71196;SDS011;58918;51.652;4.864;2022-11-22T07:41:11;2.85;;;0.65;;
71196;SDS011;58918;51.652;4.864;2022-11-22T07:43:39;3.80;;;0.77;;
71196;SDS011;58918;51.652;4.864;2022-11-22T07:46:07;4.22;;;0.85;;
71196;SDS011;58918;51.652;4.864;2022-11-22T07:48:37;3.03;;;0.77;;
71196;SDS011;58918;51.652;4.864;2022-11-22T07:51:04;3.00;;;0.77;;
71196;SDS011;58918;51.652;4.864;2022-11-22T07:53:32;3.70;;;0.75;;
71196;SDS011;58918;51.652;4.864;2022-11-22T07:56:03;3.03;;;0.90;;
71196;SDS011;58918;51.652;4.864;2022-11-22T07:58:31;3.72;;;0.90;;
71196;SDS011;58918;51.652;4.864;2022-11-22T08:01:08;2.78;;;0.65;;
71196;SDS011;58918;51.652;4.864;2022-11-22T08:03:36;3.35;;;1.08;;
71196;SDS011;58918;51.652;4.864;2022-11-22T08:06:04;3.05;;;0.82;;
71196;SDS011;58918;51.652;4.864;2022-11-22T08:08:32;3.25;;;0.80;;
71196;SDS011;58918;51.652;4.864;2022-11-22T08:10:59;4.45;;;0.80;;
71196;SDS011;58918;51.652;4.864;2022-11-22T08:13:27;4.13;;;0.75;;
71196;SDS011;58918;51.652;4.864;2022-11-22T08:15:54;2.70;;;0.68;;
71196;SDS011;58918;51.652;4.864;2022-11-22T08:18:27;2.65;;;0.90;;
71196;SDS011;58918;51.652;4.864;2022-11-22T08:21:01;4.88;;;1.02;;
71196;SDS011;58918;51.652;4.864;2022-11-22T08:23:28;3.80;;;0.70;;
71196;SDS011;58918;51.652;4.864;2022-11-22T08:25:56;3.65;;;0.75;;
71196;SDS011;58918;51.652;4.864;2022-11-22T08:28:24;2.17;;;0.65;;
71196;SDS011;58918;51.652;4.864;2022-11-22T08:30:51;4.63;;;0.90;;
71196;SDS011;58918;51.652;4.864;2022-11-22T08:33:24;3.67;;;0.68;;
71196;SDS011;58918;51.652;4.864;2022-11-22T08:35:51;4.32;;;0.93;;
71196;SDS011;58918;51.652;4.864;2022-11-22T08:38:18;2.90;;;0.80;;
71196;SDS011;58918;51.652;4.864;2022-11-22T08:40:45;4.50;;;1.40;;
71196;SDS011;58918;51.652;4.864;2022-11-22T08:43:12;2.58;;;0.70;;
71196;SDS011;58918;51.652;4.864;2022-11-22T08:45:40;1.90;;;0.50;;
71196;SDS011;58918;51.652;4.864;2022-11-22T08:48:07;1.88;;;0.63;;
71196;SDS011;58918;51.652;4.864;2022-11-22T08:50:34;3.80;;;0.70;;
71196;SDS011;58918;51.652;4.864;2022-11-22T08:53:01;3.95;;;0.75;;
71196;SDS011;58918;51.652;4.864;2022-11-22T08:55:28;2.33;;;0.60;;
71196;SDS011;58918;51.652;4.864;2022-11-22T08:57:58;3.25;;;0.80;;
71196;SDS011;58918;51.652;4.864;2022-11-22T09:00:26;2.60;;;0.70;;
71196;SDS011;58918;51.652;4.864;2022-11-22T09:02:58;3.67;;;0.90;;
71196;SDS011;58918;51.652;4.864;2022-11-22T09:05:25;4.15;;;0.80;;
71196;SDS011;58918;51.652;4.864;2022-11-22T09:07:53;4.50;;;0.73;;
71196;SDS011;58918;51.652;4.864;2022-11-22T09:10:40;2.75;;;0.75;;
71196;SDS011;58918;51.652;4.864;2022-11-22T09:13:07;3.58;;;0.70;;
71196;SDS011;58918;51.652;4.864;2022-11-22T09:15:34;3.38;;;0.95;;
71196;SDS011;58918;51.652;4.864;2022-11-22T09:18:02;2.58;;;0.65;;
71196;SDS011;58918;51.652;4.864;2022-11-22T09:20:29;3.35;;;0.60;;
71196;SDS011;58918;51.652;4.864;2022-11-22T09:22:56;3.50;;;0.80;;
71196;SDS011;58918;51.652;4.864;2022-11-22T09:25:23;3.10;;;0.73;;
71196;SDS011;58918;51.652;4.864;2022-11-22T09:27:51;3.85;;;0.95;;
71196;SDS011;58918;51.652;4.864;2022-11-22T09:30:18;1.52;;;0.63;;
71196;SDS011;58918;51.652;4.864;2022-11-22T09:32:46;1.90;;;0.57;;
71196;SDS011;58918;51.652;4.864;2022-11-22T09:35:13;2.53;;;0.70;;
71196;SDS011;58918;51.652;4.864;2022-11-22T09:37:42;2.67;;;0.80;;
71196;SDS011;58918;51.652;4.864;2022-11-22T09:40:09;3.13;;;0.88;;
71196;SDS011;58918;51.652;4.864;2022-11-22T09:42:47;2.95;;;0.80;;
71196;SDS011;58918;51.652;4.864;2022-11-22T09:53:07;2.65;;;0.80;;
71196;SDS011;58918;51.652;4.864;2022-11-22T10:00:36;3.55;;;0.80;;
71196;SDS011;58918;51.652;4.864;2022-11-22T10:05:53;1.52;;;0.47;;
71196;SDS011;58918;51.652;4.864;2022-11-22T10:10:51;2.67;;;0.63;;
71196;SDS011;58918;51.652;4.864;2022-11-22T10:13:24;2.72;;;0.73;;
71196;SDS011;58918;51.652;4.864;2022-11-22T10:16:02;3.22;;;0.80;;
71196;SDS011;58918;51.652;4.864;2022-11-22T10:18:37;2.30;;;0.52;;
71196;SDS011;58918;51.652;4.864;2022-11-22T10:21:08;2.83;;;0.70;;
71196;SDS011;58918;51.652;4.864;2022-11-22T10:23:36;2.58;;;0.60;;
71196;SDS011;58918;51.652;4.864;2022-11-22T10:31:24;3.10;;;1.00;;
71196;SDS011;58918;51.652;4.864;2022-11-22T10:36:33;2.50;;;0.77;;
71196;SDS011;58918;51.652;4.864;2022-11-22T10:41:49;2.85;;;0.63;;
71196;SDS011;58918;51.652;4.864;2022-11-22T10:51:57;3.05;;;0.57;;
71196;SDS011;58918;51.652;4.864;2022-11-22T10:54:31;2.22;;;0.50;;
71196;SDS011;58918;51.652;4.864;2022-11-22T10:57:07;3.53;;;0.80;;
71196;SDS011;58918;51.652;4.864;2022-11-22T10:59:43;2.55;;;0.60;;
71196;SDS011;58918;51.652;4.864;2022-11-22T11:04:41;1.98;;;0.57;;
71196;SDS011;58918;51.652;4.864;2022-11-22T11:07:16;2.78;;;0.70;;
71196;SDS011;58918;51.652;4.864;2022-11-22T11:09:48;3.28;;;0.70;;
71196;SDS011;58918;51.652;4.864;2022-11-22T11:12:54;2.75;;;0.60;;
71196;SDS011;58918;51.652;4.864;2022-11-22T11:15:23;1.58;;;0.60;;
71196;SDS011;58918;51.652;4.864;2022-11-22T11:17:55;3.05;;;0.60;;
71196;SDS011;58918;51.652;4.864;2022-11-22T11:20:27;2.25;;;0.52;;
71196;SDS011;58918;51.652;4.864;2022-11-22T11:22:56;2.05;;;0.65;;
71196;SDS011;58918;51.652;4.864;2022-11-22T11:25:40;1.73;;;0.60;;
71196;SDS011;58918;51.652;4.864;2022-11-22T11:28:10;2.75;;;0.70;;
71196;SDS011;58918;51.652;4.864;2022-11-22T11:30:42;1.88;;;0.50;;
71196;SDS011;58918;51.652;4.864;2022-11-22T11:33:18;4.35;;;0.75;;
71196;SDS011;58918;51.652;4.864;2022-11-22T11:35:45;2.28;;;0.60;;
71196;SDS011;58918;51.652;4.864;2022-11-22T11:38:25;2.78;;;0.80;;
71196;SDS011;58918;51.652;4.864;2022-11-22T11:40:53;2.25;;;0.60;;
71196;SDS011;58918;51.652;4.864;2022-11-22T11:43:20;1.85;;;0.47;;
71196;SDS011;58918;51.652;4.864;2022-11-22T11:45:48;2.20;;;0.63;;
71196;SDS011;58918;51.652;4.864;2022-11-22T11:48:34;2.92;;;0.70;;
71196;SDS011;58918;51.652;4.864;2022-11-22T11:51:13;2.22;;;0.52;;
71196;SDS011;58918;51.652;4.864;2022-11-22T11:53:48;3.15;;;0.73;;
71196;SDS011;58918;51.652;4.864;2022-11-22T11:58:52;2.50;;;0.65;;
71196;SDS011;58918;51.652;4.864;2022-11-22T12:01:20;2.53;;;0.80;;
71196;SDS011;58918;51.652;4.864;2022-11-22T12:03:51;1.83;;;0.60;;
71196;SDS011;58918;51.652;4.864;2022-11-22T12:06:19;2.88;;;0.80;;
71196;SDS011;58918;51.652;4.864;2022-11-22T12:08:47;1.73;;;0.50;;
71196;SDS011;58918;51.652;4.864;2022-11-22T12:11:16;1.45;;;0.40;;
71196;SDS011;58918;51.652;4.864;2022-11-22T12:13:48;1.52;;;0.63;;
71196;SDS011;58918;51.652;4.864;2022-11-22T12:16:37;2.08;;;0.50;;
71196;SDS011;58918;51.652;4.864;2022-11-22T12:30:37;2.30;;;0.70;;
71196;SDS011;58918;51.652;4.864;2022-11-22T12:33:06;1.13;;;0.40;;
71196;SDS011;58918;51.652;4.864;2022-11-22T12:35:40;1.10;;;0.50;;
71196;SDS011;58918;51.652;4.864;2022-11-22T12:38:13;3.60;;;0.70;;
71196;SDS011;58918;51.652;4.864;2022-11-22T12:40:42;2.20;;;0.63;;
71196;SDS011;58918;51.652;4.864;2022-11-22T12:43:11;2.60;;;0.50;;
71196;SDS011;58918;51.652;4.864;2022-11-22T12:45:43;3.10;;;0.68;;
71196;SDS011;58918;51.652;4.864;2022-11-22T12:48:27;2.95;;;0.63;;
71196;SDS011;58918;51.652;4.864;2022-11-22T12:50:57;3.38;;;0.68;;
71196;SDS011;58918;51.652;4.864;2022-11-22T12:53:28;1.30;;;0.50;;
71196;SDS011;58918;51.652;4.864;2022-11-22T13:01:08;2.47;;;0.60;;
71196;SDS011;58918;51.652;4.864;2022-11-22T13:03:48;2.20;;;0.75;;
71196;SDS011;58918;51.652;4.864;2022-11-22T13:06:18;2.58;;;0.70;;
71196;SDS011;58918;51.652;4.864;2022-11-22T13:08:49;1.55;;;0.50;;
71196;SDS011;58918;51.652;4.864;2022-11-22T13:11:34;2.40;;;0.45;;
71196;SDS011;58918;51.652;4.864;2022-11-22T13:14:09;2.03;;;0.60;;
71196;SDS011;58918;51.652;4.864;2022-11-22T13:16:45;1.77;;;0.47;;
71196;SDS011;58918;51.652;4.864;2022-11-22T13:19:13;1.70;;;0.60;;
71196;SDS011;58918;51.652;4.864;2022-11-22T13:29:36;2.28;;;0.43;;
71196;SDS011;58918;51.652;4.864;2022-11-22T13:34:39;2.83;;;0.52;;
71196;SDS011;58918;51.652;4.864;2022-11-22T13:37:08;2.92;;;0.50;;
71196;SDS011;58918;51.652;4.864;2022-11-22T13:39:46;1.77;;;0.73;;
71196;SDS011;58918;51.652;4.864;2022-11-22T13:42:18;2.63;;;0.50;;
71196;SDS011;58918;51.652;4.864;2022-11-22T13:44:49;2.15;;;0.52;;
71196;SDS011;58918;51.652;4.864;2022-11-22T13:49:47;1.98;;;0.60;;
71196;SDS011;58918;51.652;4.864;2022-11-22T13:57:32;1.48;;;0.43;;
71196;SDS011;58918;51.652;4.864;2022-11-22T14:02:26;1.95;;;0.50;;
71196;SDS011;58918;51.652;4.864;2022-11-22T14:04:53;2.30;;;0.50;;
71196;SDS011;58918;51.652;4.864;2022-11-22T14:07:22;2.03;;;0.60;;
71196;SDS011;58918;51.652;4.864;2022-11-22T14:17:33;1.35;;;0.50;;
71196;SDS011;58918;51.652;4.864;2022-11-22T14:25:54;1.52;;;0.50;;
71196;SDS011;58918;51.652;4.864;2022-11-22T14:28:33;1.90;;;0.45;;
71196;SDS011;58918;51.652;4.864;2022-11-22T14:31:11;1.45;;;0.40;;
71196;SDS011;58918;51.652;4.864;2022-11-22T14:34:11;2.70;;;0.50;;
71196;SDS011;58918;51.652;4.864;2022-11-22T14:36:26;1.92;;;0.50;;
71196;SDS011;58918;51.652;4.864;2022-11-22T14:38:53;1.80;;;0.60;;
71196;SDS011;58918;51.652;4.864;2022-11-22T14:41:39;1.58;;;0.40;;
71196;SDS011;58918;51.652;4.864;2022-11-22T14:44:17;1.10;;;0.45;;
71196;SDS011;58918;51.652;4.864;2022-11-22T14:46:46;2.92;;;0.50;;
71196;SDS011;58918;51.652;4.864;2022-11-22T14:51:53;3.60;;;0.57;;
71196;SDS011;58918;51.652;4.864;2022-11-22T14:54:22;1.75;;;0.50;;
71196;SDS011;58918;51.652;4.864;2022-11-22T14:56:51;0.50;;;0.30;;
71196;SDS011;58918;51.652;4.864;2022-11-22T15:10:15;4.22;;;0.70;;
71196;SDS011;58918;51.652;4.864;2022-11-22T15:12:50;0.90;;;0.40;;
71196;SDS011;58918;51.652;4.864;2022-11-22T15:18:21;1.27;;;0.50;;
71196;SDS011;58918;51.652;4.864;2022-11-22T15:24:22;1.88;;;0.60;;
71196;SDS011;58918;51.652;4.864;2022-11-22T15:27:20;1.92;;;0.70;;
71196;SDS011;58918;51.652;4.864;2022-11-22T15:30:10;1.75;;;0.55;;
71196;SDS011;58918;51.652;4.864;2022-11-22T15:32:59;1.83;;;0.52;;
71196;SDS011;58918;51.652;4.864;2022-11-22T15:35:56;0.85;;;0.30;;
71196;SDS011;58918;51.652;4.864;2022-11-22T15:38:44;1.35;;;0.50;;
71196;SDS011;58918;51.652;4.864;2022-11-22T15:41:33;1.45;;;0.50;;
71196;SDS011;58918;51.652;4.864;2022-11-22T15:44:22;1.88;;;0.50;;
71196;SDS011;58918;51.652;4.864;2022-11-22T15:47:17;1.65;;;0.55;;
71196;SDS011;58918;51.652;4.864;2022-11-22T15:50:09;2.40;;;0.50;;
71196;SDS011;58918;51.652;4.864;2022-11-22T15:53:05;5.32;;;0.73;;
71196;SDS011;58918;51.652;4.864;2022-11-22T15:55:54;1.73;;;0.57;;
71196;SDS011;58918;51.652;4.864;2022-11-22T15:58:45;1.25;;;0.40;;
71196;SDS011;58918;51.652;4.864;2022-11-22T16:01:14;1.48;;;0.40;;
71196;SDS011;58918;51.652;4.864;2022-11-22T16:03:57;1.65;;;0.55;;
71196;SDS011;58918;51.652;4.864;2022-11-22T16:06:26;1.73;;;0.50;;
71196;SDS011;58918;51.652;4.864;2022-11-22T16:08:58;1.20;;;0.43;;
71196;SDS011;58918;51.652;4.864;2022-11-22T16:11:27;2.13;;;0.65;;
71196;SDS011;58918;51.652;4.864;2022-11-22T16:13:55;5.57;;;1.15;;
71196;SDS011;58918;51.652;4.864;2022-11-22T16:16:26;12.13;;;4.60;;
71196;SDS011;58918;51.652;4.864;2022-11-22T16:19:12;15.25;;;6.97;;
71196;SDS011;58918;51.652;4.864;2022-11-22T16:21:41;16.85;;;9.43;;
71196;SDS011;58918;51.652;4.864;2022-11-22T16:24:20;20.77;;;11.30;;
71196;SDS011;58918;51.652;4.864;2022-11-22T16:27:03;26.70;;;13.65;;
71196;SDS011;58918;51.652;4.864;2022-11-22T16:29:34;27.23;;;14.23;;
71196;SDS011;58918;51.652;4.864;2022-11-22T16:34:35;28.27;;;13.90;;
71196;SDS011;58918;51.652;4.864;2022-11-22T16:39:48;30.17;;;15.80;;
71196;SDS011;58918;51.652;4.864;2022-11-22T16:42:16;30.55;;;15.30;;
71196;SDS011;58918;51.652;4.864;2022-11-22T16:44:43;31.30;;;15.35;;
71196;SDS011;58918;51.652;4.864;2022-11-22T16:47:12;30.90;;;15.32;;
71196;SDS011;58918;51.652;4.864;2022-11-22T16:49:40;40.33;;;15.77;;
71196;SDS011;58918;51.652;4.864;2022-11-22T16:52:09;31.65;;;15.90;;
71196;SDS011;58918;51.652;4.864;2022-11-22T16:54:37;29.17;;;15.65;;
71196;SDS011;58918;51.652;4.864;2022-11-22T16:57:11;30.33;;;15.82;;
71196;SDS011;58918;51.652;4.864;2022-11-22T16:59:38;22.85;;;14.52;;
71196;SDS011;58918;51.652;4.864;2022-11-22T17:02:09;30.20;;;15.60;;
71196;SDS011;58918;51.652;4.864;2022-11-22T17:04:39;26.08;;;13.82;;
71196;SDS011;58918;51.652;4.864;2022-11-22T17:07:09;26.02;;;14.30;;
71196;SDS011;58918;51.652;4.864;2022-11-22T17:09:36;28.33;;;14.20;;
71196;SDS011;58918;51.652;4.864;2022-11-22T17:12:11;27.30;;;14.85;;
71196;SDS011;58918;51.652;4.864;2022-11-22T17:14:39;30.63;;;15.82;;
71196;SDS011;58918;51.652;4.864;2022-11-22T17:17:09;31.30;;;15.52;;